Forside
METAR-TAF:

METAR-TAF

Lufthavne :

Derby, Australien

Breddekreds: 17-34-53S, længdekreds: 123-49-42E, højde: 91 m

Aktuelle vejr

Denne rapport blev lavet for 49 minutter siden, kl. 01:00 UTC
Vind 9 kt fra vest
Temperatur 30°C
Fugtighed 79%
Tryk 1012 hPa
Sigt 10 km eller mere
Spredte skyer i en højde af 1800 ft

METAR: YCIN 210100Z AUTO 26009KT 9999 // SCT018 30/26 Q1012

Tid: 09:49 (01:49 UTC)

Vejrudsigter

Denne rapport blev lavet for 1 time og 10 minutter siden, kl. 00:39 UTC
Foreløbig gælder fra 21 på 02 UTC til 21 på 14 UTC
Vind 6 kt fra vest
Sigt 10 km eller mere
ingen skyer under 1500m og ingen cumulonimbus
Sandsynlighed 30%
mellem IN og TE UTC
Vind 20 kt fra varierende retninger med vindstød på up til 35 kt
Sigt: 2000 m
Spredte skyer i en højde af 5000 ft
Nogle få skyer i en højde af 8000 ft, Cumulonimbus.
tordenbyger, regn

TAF: YCIN 210039Z 2102/2114 26006KT CAVOK PROB30 INTER 2108/2114 VRB20G35KT 2000 TSRA SCT050 FEW080CB

Vejrobservationer og prognoser fra mere end 4000 lufthavne (METAR og TAF).

De gule og røde prikker repræsenterer de meteorologiske stationer.

Flyt musen over at se navnet på stationen.

Så klik over at se vejr observationer og prognoser.

At skifte det kort: Klik på de grønne knapper med et sort kors for at zoome ind; på den grønne knap med en bindestreg for at zoome ud; eller på de grønne pile for tilstødende kort.


METAR-TAF: